Etusivu
METAR-TAF:

METAR-TAF

Lentoasemat :

Albenga, Italia

Leveyspiiri: 44-03N, Pituuspiiri: 008-07E, korkeus merenpinnasta: 45 m

Tämänhetkinen sää

Tämä raportti tehtiin 4 tuntia ja 6 minuuttia sitten, kello 17.50 UTC
tyyntä
Lämpötila 25°C
Kosteus 74%
Ilmanpaine 1010 hPa
Näkyvyys 10 km tai enemmän
Hajanaisia pilviä 3500 ft:n korkeudessa
Hajonneita pilviä 7000 ft:n korkeudessa

METAR: LIMG 221750Z 00000KT 9999 SCT035 BKN070 25/20 Q1010

Aika: 23:56 (21:56 UTC)


TAF: puuttuu

Säähavainnot ja -ennusteet yli 4000 lentoasemalta (METAR- ja TAF-raportit).

Käytössä olevat sääasemat on merkitty karttaan keltaisilla ja punaisilla pisteillä.

Aseta hiiri pisteen päälle nähdäksesi sääaseman nimen.

Klikkaa sitten nähdäksesi säähavainnot ja -ennusteet.

Kartan vaihtaminen: klikkaa mustalla rastilla varustettuja vihreitä pisteitä, niin voit zoomata sisään; viivalla varustettua vihreää pistettä, niin voit zoomata ulos tai vihreitä nuolia, niin pääset viereisille kartoille.


METAR-TAF: